Time;durP1;ratioP1;P1;durP2;ratioP2;P2;SDS_P1;SDS_P2;PMS_P1;PMS_P2;Temp;Humidity;BMP_temperature;BMP_pressure;BME280_temperature;BME280_humidity;BME280_pressure;Samples;Min_cycle;Max_cycle;Signal;HPM_P1;HPM_P2
2023/01/09 00:00:56;;;;;;;10.30;2.40;;;;;;;-146.73;61.53;45687.84;6151288;23;20021;-96
2023/01/09 00:03:22;;;;;;;16.58;3.20;;;;;;;-146.73;61.78;45672.06;6151645;23;20024;-95
2023/01/09 00:05:47;;;;;;;11.43;2.42;;;;;;;-146.73;61.30;45693.75;6149488;23;20041;-95
2023/01/09 00:08:13;;;;;;;7.00;2.20;;;;;;;-146.73;60.19;45707.56;6150154;23;20084;-95
2023/01/09 00:10:38;;;;;;;13.05;2.40;;;;;;;-146.73;61.24;45668.09;6152700;23;20006;-95
2023/01/09 00:13:04;;;;;;;9.30;2.70;;;;;;;-146.73;62.22;45709.53;6150674;23;20424;-95
2023/01/09 00:15:29;;;;;;;11.88;2.42;;;;;;;-146.73;61.55;45664.16;6149484;23;20017;-95
2023/01/09 00:17:55;;;;;;;7.15;2.10;;;;;;;-146.73;60.81;45703.63;6150112;23;20009;-95
2023/01/09 00:20:20;;;;;;;9.07;2.20;;;;;;;-146.73;59.97;45715.44;6150919;23;20436;-95
2023/01/09 00:22:46;;;;;;;14.38;2.83;;;;;;;-146.73;61.27;45676.00;6150028;23;20001;-96
2023/01/09 00:25:11;;;;;;;8.35;1.88;;;;;;;-146.73;61.47;45652.31;6150327;23;20009;-96
2023/01/09 00:27:37;;;;;;;12.77;2.50;;;;;;;-146.73;62.39;45670.06;6150967;23;20367;-94
2023/01/09 00:30:03;;;;;;;11.40;2.42;;;;;;;-146.73;63.11;45644.44;6149431;23;20176;-95
2023/01/09 00:32:28;;;;;;;9.32;2.00;;;;;;;-146.73;62.04;45666.13;6150981;23;20021;-96
2023/01/09 00:34:55;;;;;;;9.60;2.20;;;;;;;-146.73;62.59;45689.81;6151365;23;20017;-94
2023/01/09 00:37:21;;;;;;;11.13;2.25;;;;;;;-146.73;62.04;45689.81;6150983;23;20001;-94
2023/01/09 00:39:46;;;;;;;8.95;2.30;;;;;;;-146.73;61.88;45677.97;6152115;23;20099;-94
2023/01/09 00:42:17;;;;;;;10.73;2.10;;;;;;;-146.73;61.22;45695.72;6151318;23;20029;-93
2023/01/09 00:44:52;;;;;;;10.70;2.20;;;;;;;-146.73;62.61;45638.50;6152567;23;20036;-96
2023/01/09 00:47:26;;;;;;;10.68;2.10;;;;;;;-146.73;61.97;45683.88;6150663;23;20124;-96
2023/01/09 00:49:59;;;;;;;9.98;1.80;;;;;;;-146.73;61.85;45644.44;6151035;23;20013;-94
2023/01/09 00:52:24;;;;;;;;;;;;;;;-146.73;62.29;45685.84;6149494;23;20012;-94
2023/01/09 00:54:50;;;;;;;13.13;2.30;;;;;;;-146.73;62.03;45676.00;6150769;23;19905;-95
2023/01/09 00:57:16;;;;;;;10.65;1.90;;;;;;;-146.73;62.39;45687.84;6149400;23;20002;-94
2023/01/09 00:59:42;;;;;;;11.90;2.10;;;;;;;-146.73;63.34;45664.16;6148017;23;20009;-93
2023/01/09 01:02:09;;;;;;;9.27;1.90;;;;;;;-146.73;62.66;45668.09;6147175;23;20021;-93
2023/01/09 01:10:04;;;;;;;10.15;2.03;;;;;;;-146.73;63.29;45676.00;6179134;23;20028;-92
2023/01/09 01:12:29;;;;;;;11.40;1.90;;;;;;;-146.73;62.86;45648.38;6202328;23;20031;-95
2023/01/09 01:14:55;;;;;;;14.23;2.33;;;;;;;-146.73;61.77;45707.56;6176917;23;20388;-95
2023/01/09 01:17:21;;;;;;;13.20;2.25;;;;;;;-146.73;61.87;45699.66;6177479;23;20013;-95
2023/01/09 01:19:46;;;;;;;10.65;2.00;;;;;;;-146.73;62.58;45685.84;6203227;23;20495;-95
2023/01/09 01:22:12;;;;;;;13.95;2.28;;;;;;;-146.73;62.37;45695.72;6177772;23;20147;-94
2023/01/09 01:24:37;;;;;;;11.15;2.40;;;;;;;-146.73;62.07;45677.97;6178816;23;20008;-95
2023/01/09 01:27:03;;;;;;;10.20;1.85;;;;;;;-146.73;62.88;45703.63;6177972;23;20021;-96
2023/01/09 01:29:29;;;;;;;11.93;2.60;;;;;;;-146.73;62.41;45701.63;6203140;23;20018;-95
2023/01/09 01:31:55;;;;;;;11.70;1.70;;;;;;;-146.73;61.54;45743.06;6179444;23;20070;-95
2023/01/09 01:34:20;;;;;;;14.90;2.72;;;;;;;-146.73;62.44;45656.28;6178470;23;20048;-96
2023/01/09 01:36:46;;;;;;;13.30;2.15;;;;;;;-146.73;62.98;45646.41;6177617;23;19997;-95
2023/01/09 01:39:11;;;;;;;9.32;1.88;;;;;;;-146.73;62.35;45717.41;6178033;23;20005;-95
2023/01/09 01:41:37;;;;;;;7.45;1.98;;;;;;;-146.73;61.65;45762.78;6177528;23;20080;-95
2023/01/09 01:44:05;;;;;;;10.40;2.00;;;;;;;-146.73;63.17;45701.63;6179991;23;20690;-95
2023/01/09 01:46:33;;;;;;;11.30;2.00;;;;;;;-146.73;62.78;45683.88;6178417;23;20324;-95
2023/01/09 01:49:05;;;;;;;11.45;1.88;;;;;;;-146.73;61.67;45727.28;6179288;23;20004;-94
2023/01/09 01:51:35;;;;;;;13.70;2.67;;;;;;;-146.73;61.70;45711.50;6177698;23;20031;-92
2023/01/09 01:54:08;;;;;;;12.43;2.00;;;;;;;-146.73;62.27;45709.53;6180242;23;20335;-94
2023/01/09 01:56:43;;;;;;;16.20;2.47;;;;;;;-146.73;62.84;45687.84;6178763;23;20008;-95
2023/01/09 01:59:16;;;;;;;13.25;2.25;;;;;;;-146.73;61.52;45723.34;6179387;23;20012;-95
2023/01/09 02:01:47;;;;;;;13.40;2.90;;;;;;;-146.73;61.44;45711.50;6178907;23;20155;-95
2023/01/09 02:04:13;;;;;;;15.55;2.20;;;;;;;-146.73;61.90;45721.38;6170298;23;20029;-95
2023/01/09 02:06:39;;;;;;;11.85;1.85;;;;;;;-146.73;62.07;45679.94;6152370;23;20017;-95
2023/01/09 02:09:07;;;;;;;7.53;1.85;;;;;;;-146.73;62.28;45703.63;6151938;23;20010;-96
2023/01/09 02:11:33;;;;;;;13.52;2.08;;;;;;;-146.73;61.79;45723.34;6153402;23;20005;-95
2023/01/09 02:13:59;;;;;;;12.90;2.20;;;;;;;-146.73;62.67;45715.44;6150997;23;20359;-95
2023/01/09 02:16:28;;;;;;;10.75;1.98;;;;;;;-146.73;61.05;45758.84;6151860;23;20037;-95
2023/01/09 02:18:59;;;;;;;14.88;2.40;;;;;;;-146.73;62.33;45685.84;6151519;23;20048;-96
2023/01/09 02:21:49;;;;;;;10.55;2.00;;;;;;;-146.73;63.13;45711.50;6151358;23;20117;-96
2023/01/09 02:24:24;;;;;;;10.60;2.25;;;;;;;-146.73;62.41;45697.69;6152820;23;20009;-93
2023/01/09 02:26:58;;;;;;;10.80;1.80;;;;;;;-146.73;62.72;45707.56;6151583;23;20013;-94
2023/01/09 02:29:30;;;;;;;10.38;2.08;;;;;;;-146.73;62.94;45677.97;6150941;23;20024;-94
2023/01/09 02:32:10;;;;;;;7.97;1.65;;;;;;;-146.73;63.77;45668.09;6150177;23;20013;-94
2023/01/09 02:35:38;;;;;;;10.60;2.15;;;;;;;-146.73;63.31;45729.25;6150677;23;20013;-93
2023/01/09 02:38:40;;;;;;;10.38;1.75;;;;;;;-146.73;65.84;45685.84;6060990;23;20014;-92
2023/01/09 02:41:13;;;;;;;14.90;2.10;;;;;;;-146.73;63.99;45703.63;6061228;23;20015;-93
2023/01/09 02:43:39;;;;;;;;;;;;;;;-146.73;63.45;45695.72;6036796;23;20011;-93
2023/01/09 02:46:10;;;;;;;12.98;1.90;;;;;;;-146.73;63.04;45709.53;6037101;23;19913;-93
2023/01/09 02:48:36;;;;;;;16.20;2.42;;;;;;;-146.73;60.79;45804.22;6061040;23;20018;-93
2023/01/09 02:51:20;;;;;;;13.90;2.38;;;;;;;-146.73;62.33;45723.34;6061208;23;20019;-94
2023/01/09 02:53:56;;;;;;;8.13;1.60;;;;;;;-146.73;62.54;45711.50;6037725;23;20377;-94
2023/01/09 02:56:40;;;;;;;16.58;2.15;;;;;;;-146.73;63.90;45670.06;6060972;23;20034;-94
2023/01/09 02:59:47;;;;;;;11.20;1.95;;;;;;;-146.73;63.16;45727.28;6036147;23;20069;-96
2023/01/09 03:05:10;;;;;;;9.35;2.13;;;;;;;-146.73;62.52;45681.91;6144437;23;20030;-91
2023/01/09 03:07:47;;;;;;;11.52;2.30;;;;;;;-146.73;62.58;45723.34;6122019;23;20027;-92
2023/01/09 03:10:51;;;;;;;10.32;2.20;;;;;;;-146.73;60.95;45762.78;6125524;23;20002;-91
2023/01/09 03:13:20;;;;;;;11.70;2.10;;;;;;;-146.73;61.78;45707.56;6133877;23;20522;-92
2023/01/09 03:15:49;;;;;;;8.70;1.92;;;;;;;-146.73;60.85;45772.66;6126005;23;20024;-93
2023/01/09 03:18:18;;;;;;;10.88;2.05;;;;;;;-146.73;61.69;45681.91;6151365;23;20044;-93
2023/01/09 03:20:45;;;;;;;12.60;1.92;;;;;;;-146.73;62.64;45727.28;6125268;23;20010;-93
2023/01/09 03:23:10;;;;;;;8.80;1.88;;;;;;;-146.73;61.41;45711.50;6124401;23;20586;-93
2023/01/09 03:25:36;;;;;;;8.27;1.67;;;;;;;-146.73;63.15;45685.84;6124873;23;20015;-92
2023/01/09 03:28:04;;;;;;;16.92;2.47;;;;;;;-146.73;63.06;45711.50;6150357;23;20064;-92
2023/01/09 03:30:33;;;;;;;10.48;2.20;;;;;;;-146.73;63.12;45691.78;6125444;23;20009;-92
2023/01/09 03:32:59;;;;;;;10.60;1.80;;;;;;;-146.73;61.20;45737.16;6125572;23;20014;-92
2023/01/09 03:35:24;;;;;;;11.43;1.85;;;;;;;-146.73;61.58;45749.00;6124554;23;20011;-92
2023/01/09 03:37:50;;;;;;;10.73;2.13;;;;;;;-146.73;61.13;45760.81;6125343;23;19997;-92
2023/01/09 03:40:17;;;;;;;11.57;1.95;;;;;;;-146.73;61.72;45691.78;6124767;23;20018;-93
2023/01/09 03:42:43;;;;;;;10.57;2.17;;;;;;;-146.73;61.81;45703.63;6151662;23;20005;-93
2023/01/09 03:45:08;;;;;;;13.45;2.10;;;;;;;-146.73;61.67;45717.41;6126967;23;20004;-92
2023/01/09 03:47:34;;;;;;;13.80;2.20;;;;;;;-146.73;62.90;45644.44;6126742;23;20021;-93
2023/01/09 03:49:59;;;;;;;8.23;1.60;;;;;;;-146.73;62.35;45701.63;6125970;23;20608;-92
2023/01/09 03:52:25;;;;;;;11.57;2.25;;;;;;;-146.73;60.62;45719.41;6124955;23;20017;-93
2023/01/09 03:54:50;;;;;;;17.30;2.97;;;;;;;-146.73;61.39;45689.81;6150492;23;20429;-93
2023/01/09 03:57:16;;;;;;;10.55;2.20;;;;;;;-146.73;61.87;45701.63;6124262;23;20012;-93
2023/01/09 03:59:41;;;;;;;17.60;2.40;;;;;;;-146.73;62.20;45677.97;6125004;23;20016;-93
2023/01/09 04:02:07;;;;;;;12.27;2.63;;;;;;;-146.73;61.21;45721.38;6122781;23;20566;-90
2023/01/09 04:04:33;;;;;;;14.38;2.72;;;;;;;-146.73;61.27;45737.16;6144659;23;20096;-94
2023/01/09 04:06:58;;;;;;;11.32;2.67;;;;;;;-146.73;61.25;45679.94;6149290;23;19998;-94
2023/01/09 04:09:24;;;;;;;10.82;2.65;;;;;;;-146.73;61.64;45679.94;6151257;23;20156;-95
2023/01/09 04:11:49;;;;;;;14.43;3.17;;;;;;;-146.73;60.04;45705.59;6152577;23;20094;-93
2023/01/09 04:14:15;;;;;;;9.85;2.10;;;;;;;-146.73;60.33;45699.66;6152802;23;20014;-93
2023/01/09 04:16:41;;;;;;;12.48;2.25;;;;;;;-146.73;60.06;45695.72;6149452;23;20084;-93
2023/01/09 04:19:07;;;;;;;11.68;1.77;;;;;;;-146.73;62.43;45689.81;6151793;23;20056;-93
2023/01/09 04:21:33;;;;;;;9.38;1.85;;;;;;;-146.73;61.69;45676.00;6148895;23;20025;-93
2023/01/09 04:23:58;;;;;;;18.27;2.65;;;;;;;-146.73;60.64;45743.06;6148570;23;20135;-93
2023/01/09 04:26:24;;;;;;;11.25;2.30;;;;;;;-146.73;61.01;45711.50;6149142;23;20005;-94
2023/01/09 04:28:49;;;;;;;17.02;2.08;;;;;;;-146.73;61.24;45679.94;6149729;23;20062;-93
2023/01/09 04:31:14;;;;;;;10.98;2.58;;;;;;;-146.73;60.78;45707.56;6148594;23;20757;-93
2023/01/09 04:33:40;;;;;;;15.15;2.10;;;;;;;-146.73;58.52;45760.81;6148737;23;20155;-93
2023/01/09 04:36:06;;;;;;;10.45;1.95;;;;;;;-146.73;60.73;45683.88;6148927;23;20048;-92
2023/01/09 04:38:31;;;;;;;11.98;2.35;;;;;;;-146.73;60.75;45676.00;6148711;23;20021;-92
2023/01/09 04:40:57;;;;;;;11.13;2.20;;;;;;;-146.73;59.76;45741.09;6148158;23;20347;-93
2023/01/09 04:43:23;;;;;;;11.93;2.25;;;;;;;-146.73;59.16;45756.88;6149537;23;20012;-93
2023/01/09 04:45:48;;;;;;;11.18;2.20;;;;;;;-146.73;61.59;45672.06;6149454;23;20009;-93
2023/01/09 04:48:14;;;;;;;12.75;2.30;;;;;;;-146.73;61.41;45693.75;6148891;23;20379;-93
2023/01/09 04:50:39;;;;;;;13.30;2.47;;;;;;;-146.73;61.61;45676.00;6148565;23;20035;-93
2023/01/09 04:53:06;;;;;;;10.85;2.10;;;;;;;-146.73;59.96;45741.09;6150965;23;20093;-94
2023/01/09 04:55:34;;;;;;;12.27;2.63;;;;;;;-146.73;59.11;45691.78;6146819;23;20032;-92
2023/01/09 04:58:00;;;;;;;11.07;2.53;;;;;;;-146.73;59.70;45750.97;6150714;23;20348;-91
2023/01/09 05:00:26;;;;;;;13.63;2.65;;;;;;;-146.73;57.46;45802.25;6149635;23;20037;-91
2023/01/09 05:02:51;;;;;;;14.60;2.53;;;;;;;-146.73;58.02;45707.56;6147951;23;20021;-92
2023/01/09 05:05:16;;;;;;;11.70;2.83;;;;;;;-146.73;58.52;45703.63;6148130;23;20002;-92
2023/01/09 05:07:42;;;;;;;14.88;2.53;;;;;;;-146.73;59.50;45703.63;6149195;23;20032;-92
2023/01/09 05:10:09;;;;;;;10.57;2.28;;;;;;;-146.73;57.47;45774.63;6148134;23;20017;-91
2023/01/09 05:12:35;;;;;;;11.23;2.08;;;;;;;-146.73;57.73;45774.63;6148534;23;20431;-92
2023/01/09 05:15:01;;;;;;;10.45;2.25;;;;;;;-146.73;56.72;45727.28;6148401;23;20006;-92
2023/01/09 05:17:27;;;;;;;10.45;2.00;;;;;;;-146.73;56.38;45758.84;6148484;23;20076;-93
2023/01/09 05:19:52;;;;;;;13.40;1.67;;;;;;;-146.73;58.30;45727.28;6147981;23;20713;-94
2023/01/09 05:22:17;;;;;;;12.20;2.03;;;;;;;-146.73;57.93;45745.03;6148018;23;20516;-92
2023/01/09 05:24:43;;;;;;;9.85;1.73;;;;;;;-146.73;57.00;45768.72;6147822;23;20013;-93
2023/01/09 05:27:08;;;;;;;10.68;1.92;;;;;;;-146.73;57.29;45754.91;6150499;23;20439;-91
2023/01/09 05:29:34;;;;;;;14.02;1.95;;;;;;;-146.73;56.18;45800.28;6149926;23;20412;-91
2023/01/09 05:31:59;;;;;;;8.75;1.40;;;;;;;-146.73;54.69;45867.34;6148993;23;20482;-91
2023/01/09 05:34:24;;;;;;;7.28;1.77;;;;;;;-146.73;53.23;45861.44;6147382;23;20005;-93
2023/01/09 05:36:50;;;;;;;14.45;1.60;;;;;;;-146.73;54.28;45847.63;6147678;23;20001;-91
2023/01/09 05:39:16;;;;;;;9.50;1.70;;;;;;;-146.73;55.73;45739.13;6148414;23;20116;-91
2023/01/09 05:41:41;;;;;;;5.45;1.20;;;;;;;-146.73;54.12;45829.88;6150070;23;20013;-92
2023/01/09 05:44:06;;;;;;;9.93;1.80;;;;;;;-146.73;53.92;45839.72;6151136;23;20088;-92
2023/01/09 05:46:32;;;;;;;9.52;1.85;;;;;;;-146.73;54.67;45796.34;6152077;23;20428;-90
2023/01/09 05:48:57;;;;;;;12.43;1.70;;;;;;;-146.73;54.66;45798.31;6151551;23;20033;-90
2023/01/09 05:51:23;;;;;;;13.00;1.48;;;;;;;-146.73;54.43;45837.75;6151244;23;20091;-93
2023/01/09 05:53:48;;;;;;;8.25;1.27;;;;;;;-146.73;54.21;45752.94;6149892;23;20005;-94
2023/01/09 05:56:14;;;;;;;9.68;2.38;;;;;;;-146.73;54.24;45790.41;6150845;23;20044;-92
2023/01/09 05:58:39;;;;;;;9.05;1.70;;;;;;;-146.73;52.40;45883.13;6150549;23;20040;-91
2023/01/09 06:01:05;;;;;;;9.10;1.77;;;;;;;-146.73;52.86;45849.59;6150266;23;20034;-93
2023/01/09 06:03:32;;;;;;;11.02;2.10;;;;;;;-146.73;52.97;45820.00;6151624;23;20025;-91
2023/01/09 06:05:57;;;;;;;17.17;2.00;;;;;;;-146.73;54.40;45758.84;6149961;23;20002;-91
2023/01/09 06:08:23;;;;;;;12.68;2.08;;;;;;;-146.73;55.25;45723.34;6150731;23;20009;-91
2023/01/09 06:10:48;;;;;;;11.88;2.33;;;;;;;-146.73;56.21;45711.50;6151310;23;20005;-93
2023/01/09 06:13:14;;;;;;;13.02;2.00;;;;;;;-146.73;57.68;45648.38;6152542;23;20418;-94
2023/01/09 06:15:39;;;;;;;10.60;1.70;;;;;;;-146.73;56.71;45662.19;6150459;23;20015;-95
2023/01/09 06:18:05;;;;;;;10.65;1.67;;;;;;;-146.73;56.69;45707.56;6150300;23;20092;-92
2023/01/09 06:20:30;;;;;;;11.93;1.70;;;;;;;-146.73;57.28;45668.09;6150265;23;20317;-91
2023/01/09 06:22:56;;;;;;;11.30;1.70;;;;;;;-146.73;53.32;45857.50;6148515;23;20071;-91
2023/01/09 06:25:21;;;;;;;7.78;1.60;;;;;;;-146.73;52.21;45855.53;6150794;23;20764;-92
2023/01/09 06:27:47;;;;;;;12.70;1.70;;;;;;;-146.73;50.01;45932.47;6151745;23;20438;-92
2023/01/09 06:30:13;;;;;;;9.48;1.50;;;;;;;-146.73;51.52;45786.47;6151002;23;20080;-91
2023/01/09 06:32:38;;;;;;;10.07;1.50;;;;;;;-146.73;53.32;45750.97;6149897;23;20068;-91
2023/01/09 06:35:04;;;;;;;13.50;1.50;;;;;;;-146.73;48.50;46119.88;6149478;23;20013;-92
2023/01/09 06:37:30;;;;;;;7.07;1.17;;;;;;;-146.73;49.89;45893.00;6150481;23;20005;-92
2023/01/09 06:39:55;;;;;;;13.38;1.73;;;;;;;-146.73;49.57;45916.69;6150188;23;20005;-91
2023/01/09 06:42:21;;;;;;;9.35;1.30;;;;;;;-146.73;52.77;45871.31;6150806;23;20387;-91
2023/01/09 06:44:46;;;;;;;10.45;1.65;;;;;;;-146.73;53.65;45774.63;6149149;23;20032;-92
2023/01/09 06:47:11;;;;;;;9.45;2.10;;;;;;;-146.73;54.27;45808.16;6147889;23;20020;-93
2023/01/09 06:49:37;;;;;;;8.98;2.10;;;;;;;-146.73;54.04;45814.09;6146514;23;20510;-92
2023/01/09 06:52:06;;;;;;;18.42;3.00;;;;;;;-146.73;47.43;46157.38;6148977;23;20023;-93
2023/01/09 06:54:32;;;;;;;14.50;3.00;;;;;;;-146.73;48.51;46009.41;6148868;23;20025;-92
2023/01/09 06:56:58;;;;;;;10.00;2.45;;;;;;;-146.73;48.33;45997.56;6147825;23;20030;-91
2023/01/09 06:59:23;;;;;;;14.48;3.13;;;;;;;-146.73;52.03;45920.63;6148469;23;20009;-91
2023/01/09 07:01:49;;;;;;;12.15;2.50;;;;;;;-146.73;53.17;45727.28;6148439;23;20008;-92
2023/01/09 07:04:16;;;;;;;15.30;2.80;;;;;;;-146.73;53.53;45749.00;6147258;23;20029;-92
2023/01/09 07:06:42;;;;;;;75.32;6.28;;;;;;;-146.73;55.41;45762.78;6147895;23;20091;-92
2023/01/09 07:09:12;;;;;;;11.68;2.90;;;;;;;-146.73;56.97;45705.59;6150068;23;20009;-92
2023/01/09 07:11:44;;;;;;;10.10;2.97;;;;;;;-146.73;98.79;46005.47;6150890;23;20025;-93
2023/01/09 07:14:09;;;;;;;6.77;1.97;;;;;;;-146.73;82.21;45835.78;6149915;23;20009;-95
2023/01/09 07:16:35;;;;;;;6.68;2.00;;;;;;;-146.73;82.06;45865.38;6151341;23;20679;-96
2023/01/09 07:19:00;;;;;;;4.20;1.10;;;;;;;-146.73;78.54;45794.34;6148491;23;20065;-93
2023/01/09 07:21:27;;;;;;;5.03;1.55;;;;;;;-146.73;80.23;45754.91;6155036;23;20044;-94
2023/01/09 07:23:54;;;;;;;8.48;1.85;;;;;;;-146.73;82.04;45723.34;6158160;23;20040;-96
2023/01/09 07:26:19;;;;;;;8.02;1.80;;;;;;;-146.73;81.86;45752.94;6153666;23;20426;-94
2023/01/09 07:28:44;;;;;;;18.50;2.47;;;;;;;-146.73;81.22;45729.25;6153553;23;20016;-93
2023/01/09 07:31:10;;;;;;;5.88;1.55;;;;;;;-146.73;81.50;45731.22;6149758;23;20455;-93
2023/01/09 07:33:35;;;;;;;18.27;2.40;;;;;;;-146.73;79.26;45723.34;6152247;23;20113;-94
2023/01/09 07:36:01;;;;;;;8.77;2.00;;;;;;;-146.73;100.00;19659.09;6150795;23;20015;-94
2023/01/09 07:38:26;;;;;;;12.70;2.28;;;;;;;-146.73;100.00;12653.69;6152125;23;20079;-94
2023/01/09 07:40:51;;;;;;;54.15;4.15;;;;;;;-146.73;71.95;36035.19;6150823;23;20021;-96
2023/01/09 07:43:18;;;;;;;8.50;1.85;;;;;;;-146.73;nan;46329.03;6149145;23;20040;-94
2023/01/09 07:45:45;;;;;;;7.03;1.50;;;;;;;-146.73;nan;109876.00;6151949;23;20041;-92
2023/01/09 07:48:10;;;;;;;4.20;1.00;;;;;;;-146.73;nan;109876.00;6149064;23;20012;-95
2023/01/09 07:50:35;;;;;;;5.72;1.15;;;;;;;-146.73;nan;109876.00;6147143;23;20001;-95
2023/01/09 07:53:01;;;;;;;7.15;1.50;;;;;;;-146.73;nan;109876.00;6145372;23;20581;-93
2023/01/09 07:55:26;;;;;;;11.65;1.88;;;;;;;-146.73;nan;109876.00;6144613;23;20013;-92
2023/01/09 07:58:22;;;;;;;6.40;1.80;;;;;;;-146.73;nan;109876.00;6149828;23;20005;-96
2023/01/09 08:00:49;;;;;;;7.18;1.92;;;;;;;-146.73;nan;109876.00;6134787;23;20119;-92
2023/01/09 08:03:14;;;;;;;7.07;1.98;;;;;;;-146.73;nan;109876.00;6142901;23;20083;-92
2023/01/09 08:05:40;;;;;;;8.25;2.00;;;;;;;-146.73;nan;109876.00;6145728;23;20018;-92
2023/01/09 08:08:06;;;;;;;8.52;1.90;;;;;;;-146.73;nan;109876.00;6145010;23;20423;-93
2023/01/09 08:10:31;;;;;;;4.53;1.20;;;;;;;-146.73;nan;109876.00;6147503;23;20604;-92
2023/01/09 08:12:57;;;;;;;7.18;1.40;;;;;;;-146.73;nan;109876.00;6145558;23;20017;-93
2023/01/09 08:15:22;;;;;;;6.38;1.70;;;;;;;-146.73;nan;109876.00;6147478;23;20013;-94
2023/01/09 08:17:47;;;;;;;5.20;1.00;;;;;;;-146.73;nan;109876.00;6146995;23;20001;-91
2023/01/09 08:20:15;;;;;;;3.85;0.90;;;;;;;-146.73;nan;109876.00;6146186;23;20277;-95
2023/01/09 08:22:41;;;;;;;4.35;0.80;;;;;;;-146.73;nan;109876.00;6146924;23;20021;-93
2023/01/09 08:25:08;;;;;;;4.30;0.82;;;;;;;-146.73;nan;102695.88;6146871;23;20017;-94
2023/01/09 08:27:33;;;;;;;2.63;0.65;;;;;;;-146.73;nan;109876.00;6149060;23;20010;-93
2023/01/09 08:29:59;;;;;;;3.13;0.65;;;;;;;-146.73;nan;109876.00;6148403;23;20454;-93
2023/01/09 08:32:27;;;;;;;3.00;0.77;;;;;;;-146.73;nan;109876.00;6147084;23;20435;-91
2023/01/09 08:34:53;;;;;;;1.60;0.43;;;;;;;-146.73;nan;109876.00;6146737;23;20009;-93
2023/01/09 08:37:18;;;;;;;3.15;0.52;;;;;;;-146.73;nan;109876.00;6148303;23;20793;-93
2023/01/09 08:39:43;;;;;;;5.43;0.70;;;;;;;-146.73;nan;101927.56;6147157;23;20013;-92
2023/01/09 08:47:38;;;;;;;1.40;0.40;;;;;;;-146.73;nan;109876.00;6146252;23;20033;-92
2023/01/09 08:50:04;;;;;;;4.18;0.55;;;;;;;-146.73;nan;109876.00;6149758;23;20013;-93
2023/01/09 08:52:29;;;;;;;1.98;0.50;;;;;;;-146.73;nan;109876.00;6143156;23;20021;-93
2023/01/09 08:54:55;;;;;;;3.50;0.80;;;;;;;-146.73;nan;79963.94;6143338;23;20037;-92
2023/01/09 08:57:21;;;;;;;2.47;0.50;;;;;;;-146.73;nan;74873.25;6148196;23;19998;-92
2023/01/09 08:59:46;;;;;;;3.90;0.63;;;;;;;-146.73;nan;66995.47;6145902;23;20009;-93
2023/01/09 09:02:12;;;;;;;3.90;0.57;;;;;;;-146.73;nan;109876.00;6143167;23;20084;-93
2023/01/09 09:04:37;;;;;;;3.13;0.57;;;;;;;-146.73;nan;109876.00;6145456;23;20109;-92
2023/01/09 09:07:03;;;;;;;3.92;0.75;;;;;;;-146.73;nan;74873.25;6147014;23;20005;-92
2023/01/09 09:09:28;;;;;;;6.32;0.80;;;;;;;-146.73;nan;95786.16;6146188;23;20017;-92
2023/01/09 09:11:54;;;;;;;5.30;1.13;;;;;;;-146.73;nan;91186.19;6146324;23;20013;-93
2023/01/09 09:17:03;;;;;;;7.78;1.02;;;;;;;-146.73;nan;49461.53;6148495;23;20059;-93
2023/01/09 09:19:28;;;;;;;10.27;1.30;;;;;;;-146.73;nan;97832.25;6147491;23;20355;-92
2023/01/09 09:21:54;;;;;;;7.30;1.30;;;;;;;-146.73;nan;54529.69;6148417;23;20012;-93
2023/01/09 09:24:21;;;;;;;5.25;1.20;;;;;;;-146.73;nan;103464.38;6146399;23;20036;-92
2023/01/09 09:26:47;;;;;;;7.50;1.30;;;;;;;-146.73;nan;74873.25;6145477;23;20016;-92
2023/01/09 09:29:12;;;;;;;10.48;1.10;;;;;;;-146.73;nan;103720.56;6146936;23;20013;-93
2023/01/09 09:31:38;;;;;;;7.80;1.50;;;;;;;-146.73;nan;97576.44;6146652;23;20059;-91
2023/01/09 09:34:07;;;;;;;7.88;1.23;;;;;;;-146.73;nan;61857.88;6145640;23;20537;-93
2023/01/09 09:36:33;;;;;;;8.60;1.25;;;;;;;-146.73;nan;91952.50;6145244;23;20447;-94
2023/01/09 09:38:59;;;;;;;5.30;1.08;;;;;;;-146.73;nan;109876.00;6147803;23;20009;-93
2023/01/09 09:44:43;;;;;;;6.43;1.35;;;;;;;-146.73;nan;109876.00;6153052;23;20068;-93
2023/01/09 09:47:41;;;;;;;6.45;1.23;;;;;;;-146.73;nan;109876.00;6153779;23;20014;-93
2023/01/09 09:50:44;;;;;;;6.47;1.33;;;;;;;-146.73;nan;109876.00;6151165;23;20028;-93
2023/01/09 09:53:19;;;;;;;8.40;1.55;;;;;;;-146.73;nan;79709.25;6153810;23;20032;-94
2023/01/09 09:55:48;;;;;;;10.43;1.58;;;;;;;-146.73;nan;109876.00;6145307;23;20009;-92
2023/01/09 09:58:41;;;;;;;11.23;1.60;;;;;;;-146.73;nan;109360.84;6148006;23;20009;-93
2023/01/09 10:01:10;;;;;;;12.18;1.80;;;;;;;-146.73;nan;108334.75;6147442;23;20014;-93
2023/01/09 10:03:41;;;;;;;9.05;1.40;;;;;;;-146.73;nan;-19377.47;6144670;23;20056;-92
2023/01/09 10:06:19;;;;;;;9.25;1.10;;;;;;;-146.73;nan;-19377.47;6148444;23;20088;-94
2023/01/09 10:08:54;;;;;;;12.63;1.52;;;;;;;-146.73;nan;-19377.47;6146602;23;20475;-94
2023/01/09 10:11:26;;;;;;;9.60;1.45;;;;;;;-146.73;nan;-15898.09;6147347;23;20020;-92
2023/01/09 10:14:03;;;;;;;9.25;1.50;;;;;;;-146.73;nan;87612.09;6146515;23;20013;-94
2023/01/09 10:16:42;;;;;;;12.90;2.13;;;;;;;-146.73;nan;74583.13;6145375;23;20524;-93
2023/01/09 10:19:27;;;;;;;12.50;1.88;;;;;;;-146.73;nan;87101.75;6144752;23;20021;-92
2023/01/09 10:22:19;;;;;;;13.40;1.33;;;;;;;-146.73;nan;92974.44;6148564;23;20005;-94
2023/01/09 10:24:53;;;;;;;12.50;1.35;;;;;;;-146.73;nan;51387.25;6151311;23;20005;-94
2023/01/09 10:27:28;;;;;;;14.70;1.75;;;;;;;-146.73;nan;54634.47;6149111;23;20010;-94
2023/01/09 10:30:12;;;;;;;16.25;1.60;;;;;;;-146.73;nan;71567.78;6148457;23;20012;-91
2023/01/09 10:32:53;;;;;;;17.30;2.38;;;;;;;-146.73;nan;45664.16;6147329;23;20094;-96
2023/01/09 10:35:36;;;;;;;14.05;2.00;;;;;;;-146.73;nan;46417.81;6148770;23;20016;-91
2023/01/09 10:38:10;;;;;;;14.20;2.00;;;;;;;-146.73;nan;49110.06;6149884;23;20761;-91
2023/01/09 10:40:49;;;;;;;21.70;2.60;;;;;;;-146.73;nan;46907.19;6154351;23;20001;-92
2023/01/09 10:43:33;;;;;;;16.95;2.28;;;;;;;-146.73;nan;46792.72;6153195;23;20001;-93
2023/01/09 10:46:03;;;;;;;12.57;1.77;;;;;;;-146.73;nan;46715.75;6151826;23;20009;-93
2023/01/09 10:48:37;;;;;;;13.00;1.90;;;;;;;-146.73;nan;48308.50;6154860;23;20005;-93
2023/01/09 10:51:19;;;;;;;31.17;3.45;;;;;;;-146.73;nan;47455.81;6155991;23;20010;-95
2023/01/09 10:53:57;;;;;;;13.32;1.63;;;;;;;-146.73;nan;46577.63;6154823;23;20064;-95
2023/01/09 10:56:30;;;;;;;14.10;2.30;;;;;;;-146.73;nan;48482.22;6155789;23;19994;-95
2023/01/09 10:58:56;;;;;;;9.77;1.80;;;;;;;-146.73;nan;48332.19;6154778;23;20011;-92
2023/01/09 11:01:26;;;;;;;14.40;2.38;;;;;;;-146.73;nan;48059.78;6153374;23;20338;-95
2023/01/09 11:03:58;;;;;;;11.32;1.80;;;;;;;-146.73;nan;47649.22;6151227;23;20025;-96
2023/01/09 11:06:31;;;;;;;13.55;2.25;;;;;;;-146.73;nan;54527.72;6165989;23;20465;-94
2023/01/09 11:09:00;;;;;;;17.75;2.00;;;;;;;-146.73;nan;49159.41;6151923;23;20005;-93
2023/01/09 11:11:36;;;;;;;14.52;2.10;;;;;;;-146.73;nan;46767.06;6152159;23;20002;-95
2023/01/09 11:14:16;;;;;;;14.15;3.05;;;;;;;-146.73;nan;47027.56;6152825;23;20009;-95
2023/01/09 11:17:01;;;;;;;13.77;2.30;;;;;;;-146.73;nan;46873.63;6152055;23;20051;-96
2023/01/09 11:19:29;;;;;;;10.57;1.60;;;;;;;-146.73;nan;46891.38;6153527;23;20017;-96
2023/01/09 11:22:14;;;;;;;14.98;2.08;;;;;;;-146.73;nan;45902.88;6152005;23;20013;-96
2023/01/09 11:24:40;;;;;;;17.80;2.40;;;;;;;-146.73;nan;47003.88;6152300;23;20011;-93
2023/01/09 11:27:11;;;;;;;16.08;2.35;;;;;;;-146.73;nan;46579.63;6150683;23;20633;-93
2023/01/09 11:29:37;;;;;;;13.55;1.98;;;;;;;-146.73;nan;46812.47;6152808;23;20012;-94
2023/01/09 11:32:03;;;;;;;14.20;2.25;;;;;;;-146.73;nan;46510.56;6154273;23;20009;-93
2023/01/09 11:34:34;;;;;;;10.18;1.90;;;;;;;-146.73;nan;46567.78;6151250;23;20075;-96
2023/01/09 11:37:07;;;;;;;14.70;2.22;;;;;;;-146.73;nan;46054.78;6153708;23;20085;-95
2023/01/09 11:39:40;;;;;;;15.88;2.22;;;;;;;-146.73;nan;46354.69;6154924;23;20628;-96
2023/01/09 11:49:10;;;;;;;10.20;1.73;;;;;;;-146.73;nan;46238.25;6041407;23;20337;-94
2023/01/09 11:52:12;;;;;;;12.32;2.17;;;;;;;-146.73;nan;46405.97;6041567;23;20004;-95